Monday, December 18, 2017, 12:44 PM GMT
Back to Local

CWQO, Ile Bicquette, Que.

Location: , , Canada Lat: 48.416
Local Time: 12:44 PM GMT (12:44 GMT) Lon: -68.893
Time Zone: GMT Elev: 22 ft

Show me the last for .
Show Coded

Time T Td Feel RH Dir Speed Gust Alt SLP Vis Weather Sky Remarks
2017-12-18 12:00 11 7 -8 83 240° 15 21 - - 0 Peak wind: 20 mph (18 kts) from 250° at 16 min
2017-12-18 11:00 10 5 -8 80 250° 17 - - - 0 Peak wind: 23 mph (20 kts) from 240° at 30 min
2017-12-18 10:00 10 6 -8 82 250° 17 - - - 0 Peak wind: 23 mph (20 kts) from 260° at 22 min
2017-12-18 09:00 9 5 -11 83 260° 16 22 - - 0 Peak wind: 21 mph (19 kts) from 270° at 34 min
2017-12-18 08:00 6 1 -12 77 260° 15 - - - 0 Peak wind: 20 mph (18 kts) from 250° at 29 min
2017-12-18 07:00 6 0 -10 73 240° 13 - - - 0 None
2017-12-18 06:00 5 -2 -9 70 250° 9 - - - 0 None
2017-12-18 05:00 6 -2 -8 70 260° 9 - - - 0 None
2017-12-18 04:00 6 -2 -11 70 260° 13 - - - 0 Peak wind: 19 mph (17 kts) from 250° at 29 min
2017-12-18 03:00 8 -2 -7 62 260° 12 - - - 0 None
2017-12-18 02:00 6 -3 -8 67 270° 9 - - - 0 Peak wind: 20 mph (18 kts) from 250° at 05 min
2017-12-18 01:00 6 -1 -11 72 270° 15 - - - 0 Peak wind: 20 mph (18 kts) from 270° at 29 min
2017-12-18 00:00 8 2 -12 74 270° 16 22 - - 0 Peak wind: 23 mph (20 kts) from 270° at 37 min
2017-12-17 23:00 9 4 -11 80 270° 16 22 - - 0 Peak wind: 25 mph (22 kts) from 260° at 13 min
2017-12-17 22:00 9 3 -10 74 240° 20 - - - 0 Peak wind: 26 mph (23 kts) from 240° at 11 min
2017-12-17 21:00 11 4 -9 75 240° 22 - - - 0 Peak wind: 27 mph (24 kts) from 240° at 49 min
2017-12-17 20:00 12 3 -4 65 250° 16 - - - 0 Peak wind: 24 mph (21 kts) from 290° at 20 min
2017-12-17 19:00 13 2 -3 58 280° 16 - - - 0 Peak wind: 23 mph (20 kts) from 290° at 04 min
2017-12-17 18:00 13 2 -4 63 290° 17 - - - 0 Peak wind: 21 mph (19 kts) from 290° at 13 min
2017-12-17 17:00 12 2 -6 63 290° 17 - - - 0 Peak wind: 20 mph (18 kts) from 280° at 08 min
2017-12-17 16:00 9 1 -11 71 270° 14 20 - - 0 Peak wind: 24 mph (21 kts) from 250° at 02 min
2017-12-17 15:00 7 1 -15 75 250° 17 23 - - 0 Peak wind: 24 mph (21 kts) from 280° at 00 min
2017-12-17 14:00 7 1 -15 76 270° 17 25 - - 0 Peak wind: 25 mph (22 kts) from 250° at 19 min
2017-12-17 13:00 6 0 -17 77 250° 21 28 - - 0 Peak wind: 27 mph (24 kts) from 260° at 58 min

Support USWX by starting your Amazon purchase here.